sensor_id;sensor_type;location;lat;lon;timestamp;temperature;humidity
59660;DHT22;45534;52.690;6.268;2024-01-30T00:01:49;6.10;99.90
59660;DHT22;45534;52.690;6.268;2024-01-30T00:04:14;5.90;99.90
59660;DHT22;45534;52.690;6.268;2024-01-30T00:06:42;5.70;99.90
59660;DHT22;45534;52.690;6.268;2024-01-30T00:09:08;5.60;99.90
59660;DHT22;45534;52.690;6.268;2024-01-30T00:11:34;5.50;99.90
59660;DHT22;45534;52.690;6.268;2024-01-30T00:14:00;5.40;99.90
59660;DHT22;45534;52.690;6.268;2024-01-30T00:16:26;5.30;99.90
59660;DHT22;45534;52.690;6.268;2024-01-30T00:18:52;5.30;99.90
59660;DHT22;45534;52.690;6.268;2024-01-30T00:21:18;5.20;99.90
59660;DHT22;45534;52.690;6.268;2024-01-30T00:23:44;5.20;99.90
59660;DHT22;45534;52.690;6.268;2024-01-30T00:26:10;5.10;99.90
59660;DHT22;45534;52.690;6.268;2024-01-30T00:28:37;5.10;99.90
59660;DHT22;45534;52.690;6.268;2024-01-30T00:31:03;5.10;99.90
59660;DHT22;45534;52.690;6.268;2024-01-30T00:33:29;5.00;99.90
59660;DHT22;45534;52.690;6.268;2024-01-30T00:35:55;5.00;99.90
59660;DHT22;45534;52.690;6.268;2024-01-30T00:38:21;5.00;99.90
59660;DHT22;45534;52.690;6.268;2024-01-30T00:40:48;5.00;99.90
59660;DHT22;45534;52.690;6.268;2024-01-30T00:43:13;4.90;99.90
59660;DHT22;45534;52.690;6.268;2024-01-30T00:45:39;4.90;99.90
59660;DHT22;45534;52.690;6.268;2024-01-30T00:48:05;4.90;99.90
59660;DHT22;45534;52.690;6.268;2024-01-30T00:50:31;4.80;99.90
59660;DHT22;45534;52.690;6.268;2024-01-30T00:52:57;4.80;99.90
59660;DHT22;45534;52.690;6.268;2024-01-30T00:55:22;4.80;99.90
59660;DHT22;45534;52.690;6.268;2024-01-30T00:57:48;4.90;99.90
59660;DHT22;45534;52.690;6.268;2024-01-30T01:00:14;4.90;99.90
59660;DHT22;45534;52.690;6.268;2024-01-30T01:02:43;5.00;99.90
59660;DHT22;45534;52.690;6.268;2024-01-30T01:05:09;5.10;99.90
59660;DHT22;45534;52.690;6.268;2024-01-30T01:07:35;5.20;99.90
59660;DHT22;45534;52.690;6.268;2024-01-30T01:10:01;5.20;99.90
59660;DHT22;45534;52.690;6.268;2024-01-30T01:12:28;5.30;99.90
59660;DHT22;45534;52.690;6.268;2024-01-30T01:14:53;5.40;99.90
59660;DHT22;45534;52.690;6.268;2024-01-30T01:17:19;5.50;99.90
59660;DHT22;45534;52.690;6.268;2024-01-30T01:19:45;5.60;99.90
59660;DHT22;45534;52.690;6.268;2024-01-30T01:22:11;5.70;99.90
59660;DHT22;45534;52.690;6.268;2024-01-30T01:24:36;5.70;99.90
59660;DHT22;45534;52.690;6.268;2024-01-30T01:27:02;5.70;99.90
59660;DHT22;45534;52.690;6.268;2024-01-30T01:29:28;5.70;99.90
59660;DHT22;45534;52.690;6.268;2024-01-30T01:32:00;5.80;99.90
59660;DHT22;45534;52.690;6.268;2024-01-30T01:34:26;5.80;99.90
59660;DHT22;45534;52.690;6.268;2024-01-30T01:36:52;5.90;99.90
59660;DHT22;45534;52.690;6.268;2024-01-30T01:39:21;5.80;99.90
59660;DHT22;45534;52.690;6.268;2024-01-30T01:41:48;5.80;99.90
59660;DHT22;45534;52.690;6.268;2024-01-30T01:44:13;5.80;99.90
59660;DHT22;45534;52.690;6.268;2024-01-30T01:46:39;5.80;99.90
59660;DHT22;45534;52.690;6.268;2024-01-30T01:49:05;5.80;99.90
59660;DHT22;45534;52.690;6.268;2024-01-30T01:51:35;5.80;99.90
59660;DHT22;45534;52.690;6.268;2024-01-30T01:54:05;5.80;99.90
59660;DHT22;45534;52.690;6.268;2024-01-30T01:56:31;5.80;99.90
59660;DHT22;45534;52.690;6.268;2024-01-30T01:59:06;5.80;99.90
59660;DHT22;45534;52.690;6.268;2024-01-30T02:01:38;5.80;99.90
59660;DHT22;45534;52.690;6.268;2024-01-30T02:04:04;5.80;99.90
59660;DHT22;45534;52.690;6.268;2024-01-30T02:06:30;5.80;99.90
59660;DHT22;45534;52.690;6.268;2024-01-30T02:08:56;5.70;99.90
59660;DHT22;45534;52.690;6.268;2024-01-30T02:11:22;5.70;99.90
59660;DHT22;45534;52.690;6.268;2024-01-30T02:13:49;5.70;99.90
59660;DHT22;45534;52.690;6.268;2024-01-30T02:16:14;5.70;99.90
59660;DHT22;45534;52.690;6.268;2024-01-30T02:18:40;5.70;99.90
59660;DHT22;45534;52.690;6.268;2024-01-30T02:21:13;5.70;99.90
59660;DHT22;45534;52.690;6.268;2024-01-30T02:23:39;5.70;99.90
59660;DHT22;45534;52.690;6.268;2024-01-30T02:26:06;5.70;99.90
59660;DHT22;45534;52.690;6.268;2024-01-30T02:28:32;5.80;99.90
59660;DHT22;45534;52.690;6.268;2024-01-30T02:30:58;5.80;99.90
59660;DHT22;45534;52.690;6.268;2024-01-30T02:33:23;5.80;99.90
59660;DHT22;45534;52.690;6.268;2024-01-30T02:35:49;5.80;99.90
59660;DHT22;45534;52.690;6.268;2024-01-30T02:38:17;5.80;99.90
59660;DHT22;45534;52.690;6.268;2024-01-30T02:40:43;5.80;99.90
59660;DHT22;45534;52.690;6.268;2024-01-30T02:43:09;5.90;99.90
59660;DHT22;45534;52.690;6.268;2024-01-30T02:45:34;5.90;99.90
59660;DHT22;45534;52.690;6.268;2024-01-30T02:48:00;5.90;99.90
59660;DHT22;45534;52.690;6.268;2024-01-30T02:50:26;5.90;99.90
59660;DHT22;45534;52.690;6.268;2024-01-30T02:52:51;5.90;99.90
59660;DHT22;45534;52.690;6.268;2024-01-30T02:55:17;6.00;99.90
59660;DHT22;45534;52.690;6.268;2024-01-30T02:57:44;6.00;99.90
59660;DHT22;45534;52.690;6.268;2024-01-30T03:00:10;6.00;99.90
59660;DHT22;45534;52.690;6.268;2024-01-30T03:02:36;6.00;99.90
59660;DHT22;45534;52.690;6.268;2024-01-30T03:05:03;6.00;99.90
59660;DHT22;45534;52.690;6.268;2024-01-30T03:07:31;6.00;99.90
59660;DHT22;45534;52.690;6.268;2024-01-30T03:09:57;6.00;99.90
59660;DHT22;45534;52.690;6.268;2024-01-30T03:12:23;6.00;99.90
59660;DHT22;45534;52.690;6.268;2024-01-30T03:14:48;6.00;99.90
59660;DHT22;45534;52.690;6.268;2024-01-30T03:17:15;6.00;99.90
59660;DHT22;45534;52.690;6.268;2024-01-30T03:19:40;6.10;99.90
59660;DHT22;45534;52.690;6.268;2024-01-30T03:22:06;6.10;99.90
59660;DHT22;45534;52.690;6.268;2024-01-30T03:24:32;6.20;99.90
59660;DHT22;45534;52.690;6.268;2024-01-30T03:26:58;6.20;99.90
59660;DHT22;45534;52.690;6.268;2024-01-30T03:29:23;6.20;99.90
59660;DHT22;45534;52.690;6.268;2024-01-30T03:31:49;6.30;99.90
59660;DHT22;45534;52.690;6.268;2024-01-30T03:34:15;6.40;99.90
59660;DHT22;45534;52.690;6.268;2024-01-30T03:36:40;6.40;99.90
59660;DHT22;45534;52.690;6.268;2024-01-30T03:39:06;6.40;99.90
59660;DHT22;45534;52.690;6.268;2024-01-30T03:41:32;6.50;99.90
59660;DHT22;45534;52.690;6.268;2024-01-30T03:43:58;6.50;99.90
59660;DHT22;45534;52.690;6.268;2024-01-30T03:46:23;6.50;99.90
59660;DHT22;45534;52.690;6.268;2024-01-30T03:48:50;6.60;99.90
59660;DHT22;45534;52.690;6.268;2024-01-30T03:51:15;6.60;99.90
59660;DHT22;45534;52.690;6.268;2024-01-30T03:53:42;6.60;99.90
59660;DHT22;45534;52.690;6.268;2024-01-30T03:56:08;6.60;99.90
59660;DHT22;45534;52.690;6.268;2024-01-30T03:58:34;6.60;99.90
59660;DHT22;45534;52.690;6.268;2024-01-30T04:01:00;6.70;99.90
59660;DHT22;45534;52.690;6.268;2024-01-30T04:03:26;6.70;99.90
59660;DHT22;45534;52.690;6.268;2024-01-30T04:05:52;6.70;99.90
59660;DHT22;45534;52.690;6.268;2024-01-30T04:08:18;6.80;99.90
59660;DHT22;45534;52.690;6.268;2024-01-30T04:10:44;6.70;99.90
59660;DHT22;45534;52.690;6.268;2024-01-30T04:13:10;6.80;99.90
59660;DHT22;45534;52.690;6.268;2024-01-30T04:15:35;6.80;99.90
59660;DHT22;45534;52.690;6.268;2024-01-30T04:18:01;6.80;99.90
59660;DHT22;45534;52.690;6.268;2024-01-30T04:20:27;6.90;99.90
59660;DHT22;45534;52.690;6.268;2024-01-30T04:22:53;6.80;99.90
59660;DHT22;45534;52.690;6.268;2024-01-30T04:25:18;6.90;99.90
59660;DHT22;45534;52.690;6.268;2024-01-30T04:27:44;6.90;99.90
59660;DHT22;45534;52.690;6.268;2024-01-30T04:30:10;6.90;99.90
59660;DHT22;45534;52.690;6.268;2024-01-30T04:32:36;6.90;99.90
59660;DHT22;45534;52.690;6.268;2024-01-30T04:35:02;6.90;99.90
59660;DHT22;45534;52.690;6.268;2024-01-30T04:37:28;6.90;99.90
59660;DHT22;45534;52.690;6.268;2024-01-30T04:39:54;6.90;99.90
59660;DHT22;45534;52.690;6.268;2024-01-30T04:42:19;6.80;99.90
59660;DHT22;45534;52.690;6.268;2024-01-30T04:44:45;6.90;99.90
59660;DHT22;45534;52.690;6.268;2024-01-30T04:47:11;6.80;99.90
59660;DHT22;45534;52.690;6.268;2024-01-30T04:49:40;6.80;99.90
59660;DHT22;45534;52.690;6.268;2024-01-30T04:52:07;6.80;99.90
59660;DHT22;45534;52.690;6.268;2024-01-30T04:54:33;6.90;99.90
59660;DHT22;45534;52.690;6.268;2024-01-30T04:57:00;6.90;99.90
59660;DHT22;45534;52.690;6.268;2024-01-30T04:59:25;6.90;99.90
59660;DHT22;45534;52.690;6.268;2024-01-30T05:01:51;6.90;99.90
59660;DHT22;45534;52.690;6.268;2024-01-30T05:04:17;7.00;99.90
59660;DHT22;45534;52.690;6.268;2024-01-30T05:06:43;7.00;99.90
59660;DHT22;45534;52.690;6.268;2024-01-30T05:09:09;7.00;99.90
59660;DHT22;45534;52.690;6.268;2024-01-30T05:11:38;7.00;99.90
59660;DHT22;45534;52.690;6.268;2024-01-30T05:14:04;7.00;99.90
59660;DHT22;45534;52.690;6.268;2024-01-30T05:16:31;7.00;99.90
59660;DHT22;45534;52.690;6.268;2024-01-30T05:18:57;7.10;99.90
59660;DHT22;45534;52.690;6.268;2024-01-30T05:21:22;7.10;99.90
59660;DHT22;45534;52.690;6.268;2024-01-30T05:23:48;7.10;99.90
59660;DHT22;45534;52.690;6.268;2024-01-30T05:26:14;7.10;99.90
59660;DHT22;45534;52.690;6.268;2024-01-30T05:28:39;7.10;99.90
59660;DHT22;45534;52.690;6.268;2024-01-30T05:31:05;7.20;99.90
59660;DHT22;45534;52.690;6.268;2024-01-30T05:33:31;7.20;99.90
59660;DHT22;45534;52.690;6.268;2024-01-30T05:35:56;7.20;99.90
59660;DHT22;45534;52.690;6.268;2024-01-30T05:38:22;7.20;99.90
59660;DHT22;45534;52.690;6.268;2024-01-30T05:40:48;7.30;99.90
59660;DHT22;45534;52.690;6.268;2024-01-30T05:43:13;7.20;99.90
59660;DHT22;45534;52.690;6.268;2024-01-30T05:45:39;7.20;99.90
59660;DHT22;45534;52.690;6.268;2024-01-30T05:48:05;7.30;99.90
59660;DHT22;45534;52.690;6.268;2024-01-30T05:50:31;7.30;99.90
59660;DHT22;45534;52.690;6.268;2024-01-30T05:52:57;7.30;99.90
59660;DHT22;45534;52.690;6.268;2024-01-30T05:55:22;7.30;99.90
59660;DHT22;45534;52.690;6.268;2024-01-30T05:57:48;7.30;99.90
59660;DHT22;45534;52.690;6.268;2024-01-30T06:00:14;7.40;99.90
59660;DHT22;45534;52.690;6.268;2024-01-30T06:02:40;7.40;99.90
59660;DHT22;45534;52.690;6.268;2024-01-30T06:05:06;7.40;99.90
59660;DHT22;45534;52.690;6.268;2024-01-30T06:07:32;7.40;99.90
59660;DHT22;45534;52.690;6.268;2024-01-30T06:09:57;7.40;99.90
59660;DHT22;45534;52.690;6.268;2024-01-30T06:12:23;7.40;99.90
59660;DHT22;45534;52.690;6.268;2024-01-30T06:14:49;7.40;99.90
59660;DHT22;45534;52.690;6.268;2024-01-30T06:17:14;7.40;99.90
59660;DHT22;45534;52.690;6.268;2024-01-30T06:19:40;7.50;99.90
59660;DHT22;45534;52.690;6.268;2024-01-30T06:22:06;7.40;99.90
59660;DHT22;45534;52.690;6.268;2024-01-30T06:24:32;7.50;99.90
59660;DHT22;45534;52.690;6.268;2024-01-30T06:26:59;7.50;99.90
59660;DHT22;45534;52.690;6.268;2024-01-30T06:29:24;7.50;99.90
59660;DHT22;45534;52.690;6.268;2024-01-30T06:31:52;7.50;99.90
59660;DHT22;45534;52.690;6.268;2024-01-30T06:34:17;7.60;99.90
59660;DHT22;45534;52.690;6.268;2024-01-30T06:36:43;7.60;99.90
59660;DHT22;45534;52.690;6.268;2024-01-30T06:39:09;7.70;99.90
59660;DHT22;45534;52.690;6.268;2024-01-30T06:41:34;7.70;99.90
59660;DHT22;45534;52.690;6.268;2024-01-30T06:44:02;7.70;99.90
59660;DHT22;45534;52.690;6.268;2024-01-30T06:46:28;7.80;99.90
59660;DHT22;45534;52.690;6.268;2024-01-30T06:48:54;7.80;99.90
59660;DHT22;45534;52.690;6.268;2024-01-30T06:51:20;7.80;99.90
59660;DHT22;45534;52.690;6.268;2024-01-30T06:53:45;7.80;99.90
59660;DHT22;45534;52.690;6.268;2024-01-30T06:56:11;7.90;99.90
59660;DHT22;45534;52.690;6.268;2024-01-30T06:58:37;7.90;99.90
59660;DHT22;45534;52.690;6.268;2024-01-30T07:01:02;7.90;99.90
59660;DHT22;45534;52.690;6.268;2024-01-30T07:03:28;7.90;99.90
59660;DHT22;45534;52.690;6.268;2024-01-30T07:05:54;7.90;99.90
59660;DHT22;45534;52.690;6.268;2024-01-30T07:08:19;8.00;99.90
59660;DHT22;45534;52.690;6.268;2024-01-30T07:10:46;8.00;99.90
59660;DHT22;45534;52.690;6.268;2024-01-30T07:13:12;8.00;99.90
59660;DHT22;45534;52.690;6.268;2024-01-30T07:15:37;8.00;99.90
59660;DHT22;45534;52.690;6.268;2024-01-30T07:18:04;7.90;99.90
59660;DHT22;45534;52.690;6.268;2024-01-30T07:20:30;7.90;99.90
59660;DHT22;45534;52.690;6.268;2024-01-30T07:22:58;7.90;99.90
59660;DHT22;45534;52.690;6.268;2024-01-30T07:25:24;7.90;99.90
59660;DHT22;45534;52.690;6.268;2024-01-30T07:27:52;8.00;99.90
59660;DHT22;45534;52.690;6.268;2024-01-30T07:30:21;8.00;99.90
59660;DHT22;45534;52.690;6.268;2024-01-30T07:32:48;8.00;99.90
59660;DHT22;45534;52.690;6.268;2024-01-30T07:35:14;8.00;99.90
59660;DHT22;45534;52.690;6.268;2024-01-30T07:37:40;8.00;99.90
59660;DHT22;45534;52.690;6.268;2024-01-30T07:40:06;8.10;99.90
59660;DHT22;45534;52.690;6.268;2024-01-30T07:42:32;8.10;99.90
59660;DHT22;45534;52.690;6.268;2024-01-30T07:44:59;8.10;99.90
59660;DHT22;45534;52.690;6.268;2024-01-30T07:47:25;8.10;99.90
59660;DHT22;45534;52.690;6.268;2024-01-30T07:49:51;8.20;99.90
59660;DHT22;45534;52.690;6.268;2024-01-30T07:52:17;8.20;99.90
59660;DHT22;45534;52.690;6.268;2024-01-30T07:54:49;8.20;99.90
59660;DHT22;45534;52.690;6.268;2024-01-30T07:57:14;8.20;99.90
59660;DHT22;45534;52.690;6.268;2024-01-30T07:59:42;8.20;99.90
59660;DHT22;45534;52.690;6.268;2024-01-30T08:02:10;8.30;99.90
59660;DHT22;45534;52.690;6.268;2024-01-30T08:04:36;8.30;99.90
59660;DHT22;45534;52.690;6.268;2024-01-30T08:07:01;8.30;99.90
59660;DHT22;45534;52.690;6.268;2024-01-30T08:09:27;8.40;99.90
59660;DHT22;45534;52.690;6.268;2024-01-30T08:11:53;8.40;99.90
59660;DHT22;45534;52.690;6.268;2024-01-30T08:14:18;8.40;99.90
59660;DHT22;45534;52.690;6.268;2024-01-30T08:16:44;8.40;99.90
59660;DHT22;45534;52.690;6.268;2024-01-30T08:19:10;8.40;99.90
59660;DHT22;45534;52.690;6.268;2024-01-30T08:21:35;8.50;99.90
59660;DHT22;45534;52.690;6.268;2024-01-30T08:24:05;8.50;99.90
59660;DHT22;45534;52.690;6.268;2024-01-30T08:26:32;8.50;99.90
59660;DHT22;45534;52.690;6.268;2024-01-30T08:28:58;8.50;99.90
59660;DHT22;45534;52.690;6.268;2024-01-30T08:31:23;8.50;99.90
59660;DHT22;45534;52.690;6.268;2024-01-30T08:33:49;8.50;99.90
59660;DHT22;45534;52.690;6.268;2024-01-30T08:36:16;8.60;99.90
59660;DHT22;45534;52.690;6.268;2024-01-30T08:38:42;8.60;99.90
59660;DHT22;45534;52.690;6.268;2024-01-30T08:41:07;8.60;99.90
59660;DHT22;45534;52.690;6.268;2024-01-30T08:43:33;8.60;99.90
59660;DHT22;45534;52.690;6.268;2024-01-30T08:46:00;8.60;99.90
59660;DHT22;45534;52.690;6.268;2024-01-30T08:48:26;8.60;99.90
59660;DHT22;45534;52.690;6.268;2024-01-30T08:50:51;8.60;99.90
59660;DHT22;45534;52.690;6.268;2024-01-30T08:53:17;8.70;99.90
59660;DHT22;45534;52.690;6.268;2024-01-30T08:55:43;8.70;99.90
59660;DHT22;45534;52.690;6.268;2024-01-30T08:58:08;8.70;99.90
59660;DHT22;45534;52.690;6.268;2024-01-30T09:00:34;8.80;99.90
59660;DHT22;45534;52.690;6.268;2024-01-30T09:03:00;8.80;99.90
59660;DHT22;45534;52.690;6.268;2024-01-30T09:05:26;8.80;99.90
59660;DHT22;45534;52.690;6.268;2024-01-30T09:07:51;8.90;99.90
59660;DHT22;45534;52.690;6.268;2024-01-30T09:10:17;8.90;99.90
59660;DHT22;45534;52.690;6.268;2024-01-30T09:12:43;8.90;99.90
59660;DHT22;45534;52.690;6.268;2024-01-30T09:15:09;8.90;99.90
59660;DHT22;45534;52.690;6.268;2024-01-30T09:17:34;9.00;99.90
59660;DHT22;45534;52.690;6.268;2024-01-30T09:20:00;9.00;99.90
59660;DHT22;45534;52.690;6.268;2024-01-30T09:22:26;9.10;99.90
59660;DHT22;45534;52.690;6.268;2024-01-30T09:24:52;9.10;99.90
59660;DHT22;45534;52.690;6.268;2024-01-30T09:27:17;9.10;99.90
59660;DHT22;45534;52.690;6.268;2024-01-30T09:29:43;9.20;99.90
59660;DHT22;45534;52.690;6.268;2024-01-30T09:32:08;9.20;99.90
59660;DHT22;45534;52.690;6.268;2024-01-30T09:34:34;9.20;99.90
59660;DHT22;45534;52.690;6.268;2024-01-30T09:37:00;9.30;99.90
59660;DHT22;45534;52.690;6.268;2024-01-30T09:39:26;9.30;99.90
59660;DHT22;45534;52.690;6.268;2024-01-30T09:42:05;9.40;99.90
59660;DHT22;45534;52.690;6.268;2024-01-30T09:44:35;9.40;99.90
59660;DHT22;45534;52.690;6.268;2024-01-30T09:47:03;9.50;99.90
59660;DHT22;45534;52.690;6.268;2024-01-30T09:49:34;9.50;99.90
59660;DHT22;45534;52.690;6.268;2024-01-30T09:52:02;9.60;99.90
59660;DHT22;45534;52.690;6.268;2024-01-30T09:54:31;9.60;99.90
59660;DHT22;45534;52.690;6.268;2024-01-30T09:56:58;9.70;99.90
59660;DHT22;45534;52.690;6.268;2024-01-30T09:59:23;9.70;99.90
59660;DHT22;45534;52.690;6.268;2024-01-30T10:01:50;9.70;99.90
59660;DHT22;45534;52.690;6.268;2024-01-30T10:04:16;9.80;99.90
59660;DHT22;45534;52.690;6.268;2024-01-30T10:06:42;9.80;99.90
59660;DHT22;45534;52.690;6.268;2024-01-30T10:09:07;9.90;99.90
59660;DHT22;45534;52.690;6.268;2024-01-30T10:11:35;9.90;99.90
59660;DHT22;45534;52.690;6.268;2024-01-30T10:14:01;10.00;99.90
59660;DHT22;45534;52.690;6.268;2024-01-30T10:16:27;10.00;99.90
59660;DHT22;45534;52.690;6.268;2024-01-30T10:18:53;10.10;99.90
59660;DHT22;45534;52.690;6.268;2024-01-30T10:21:19;10.10;99.90
59660;DHT22;45534;52.690;6.268;2024-01-30T10:23:45;10.10;99.90
59660;DHT22;45534;52.690;6.268;2024-01-30T10:26:10;10.10;99.90
59660;DHT22;45534;52.690;6.268;2024-01-30T10:28:36;10.10;99.90
59660;DHT22;45534;52.690;6.268;2024-01-30T10:31:03;10.10;99.90
59660;DHT22;45534;52.690;6.268;2024-01-30T10:33:31;10.10;99.90
59660;DHT22;45534;52.690;6.268;2024-01-30T10:36:01;10.20;99.90
59660;DHT22;45534;52.690;6.268;2024-01-30T10:38:29;10.20;99.90
59660;DHT22;45534;52.690;6.268;2024-01-30T10:40:59;10.30;99.90
59660;DHT22;45534;52.690;6.268;2024-01-30T10:43:35;10.30;99.90
59660;DHT22;45534;52.690;6.268;2024-01-30T10:46:15;10.30;99.90
59660;DHT22;45534;52.690;6.268;2024-01-30T10:48:43;10.40;99.90
59660;DHT22;45534;52.690;6.268;2024-01-30T10:51:14;10.50;99.90
59660;DHT22;45534;52.690;6.268;2024-01-30T10:53:41;10.60;99.90
59660;DHT22;45534;52.690;6.268;2024-01-30T10:56:09;10.70;99.90
59660;DHT22;45534;52.690;6.268;2024-01-30T10:58:35;10.80;99.90
59660;DHT22;45534;52.690;6.268;2024-01-30T11:01:01;10.80;99.90
59660;DHT22;45534;52.690;6.268;2024-01-30T11:03:28;10.90;99.90
59660;DHT22;45534;52.690;6.268;2024-01-30T11:05:53;10.90;99.90
59660;DHT22;45534;52.690;6.268;2024-01-30T11:08:25;10.90;99.90
59660;DHT22;45534;52.690;6.268;2024-01-30T11:10:56;10.90;99.90
59660;DHT22;45534;52.690;6.268;2024-01-30T11:13:31;11.00;99.90
59660;DHT22;45534;52.690;6.268;2024-01-30T11:16:04;11.00;99.90
59660;DHT22;45534;52.690;6.268;2024-01-30T11:18:31;11.00;99.90
59660;DHT22;45534;52.690;6.268;2024-01-30T11:20:58;11.00;99.90
59660;DHT22;45534;52.690;6.268;2024-01-30T11:23:26;11.00;99.90
59660;DHT22;45534;52.690;6.268;2024-01-30T11:25:56;11.00;99.90
59660;DHT22;45534;52.690;6.268;2024-01-30T11:28:23;11.00;99.90
59660;DHT22;45534;52.690;6.268;2024-01-30T11:30:48;11.00;99.90
59660;DHT22;45534;52.690;6.268;2024-01-30T11:33:29;11.00;99.90
59660;DHT22;45534;52.690;6.268;2024-01-30T11:35:57;11.10;99.90
59660;DHT22;45534;52.690;6.268;2024-01-30T11:38:26;11.20;99.90
59660;DHT22;45534;52.690;6.268;2024-01-30T11:40:54;11.20;99.90
59660;DHT22;45534;52.690;6.268;2024-01-30T11:43:20;11.30;99.90
59660;DHT22;45534;52.690;6.268;2024-01-30T11:45:45;11.40;99.90
59660;DHT22;45534;52.690;6.268;2024-01-30T11:48:12;11.40;99.90
59660;DHT22;45534;52.690;6.268;2024-01-30T11:50:39;11.50;99.90
59660;DHT22;45534;52.690;6.268;2024-01-30T11:53:05;11.50;99.90
59660;DHT22;45534;52.690;6.268;2024-01-30T11:55:31;11.50;99.90
59660;DHT22;45534;52.690;6.268;2024-01-30T11:57:58;11.50;99.90
59660;DHT22;45534;52.690;6.268;2024-01-30T12:00:24;11.50;99.90
59660;DHT22;45534;52.690;6.268;2024-01-30T12:02:51;11.50;99.90
59660;DHT22;45534;52.690;6.268;2024-01-30T12:05:21;11.50;99.90
59660;DHT22;45534;52.690;6.268;2024-01-30T12:07:47;11.30;99.90
59660;DHT22;45534;52.690;6.268;2024-01-30T12:10:13;11.20;99.90
59660;DHT22;45534;52.690;6.268;2024-01-30T12:12:41;11.10;99.90
59660;DHT22;45534;52.690;6.268;2024-01-30T12:15:08;11.10;99.90
59660;DHT22;45534;52.690;6.268;2024-01-30T12:17:34;11.10;99.90
59660;DHT22;45534;52.690;6.268;2024-01-30T12:22:52;11.10;99.90
59660;DHT22;45534;52.690;6.268;2024-01-30T12:25:20;11.00;99.90
59660;DHT22;45534;52.690;6.268;2024-01-30T12:27:49;10.90;99.90
59660;DHT22;45534;52.690;6.268;2024-01-30T12:30:17;10.80;99.90
59660;DHT22;45534;52.690;6.268;2024-01-30T12:32:47;10.80;99.90
59660;DHT22;45534;52.690;6.268;2024-01-30T12:35:14;10.70;99.90
59660;DHT22;45534;52.690;6.268;2024-01-30T12:37:41;10.80;99.90
59660;DHT22;45534;52.690;6.268;2024-01-30T12:40:08;10.80;99.90
59660;DHT22;45534;52.690;6.268;2024-01-30T12:42:35;10.70;99.90
59660;DHT22;45534;52.690;6.268;2024-01-30T12:45:03;10.70;99.90
59660;DHT22;45534;52.690;6.268;2024-01-30T12:47:29;10.70;99.90
59660;DHT22;45534;52.690;6.268;2024-01-30T12:49:55;10.60;99.90
59660;DHT22;45534;52.690;6.268;2024-01-30T12:52:21;10.60;99.90
59660;DHT22;45534;52.690;6.268;2024-01-30T12:54:48;10.70;99.90
59660;DHT22;45534;52.690;6.268;2024-01-30T12:57:14;10.70;99.90
59660;DHT22;45534;52.690;6.268;2024-01-30T12:59:40;10.60;99.90
59660;DHT22;45534;52.690;6.268;2024-01-30T13:02:07;10.60;99.90
59660;DHT22;45534;52.690;6.268;2024-01-30T13:04:33;10.50;99.90
59660;DHT22;45534;52.690;6.268;2024-01-30T13:06:58;10.40;99.90
59660;DHT22;45534;52.690;6.268;2024-01-30T13:09:26;10.30;99.90
59660;DHT22;45534;52.690;6.268;2024-01-30T13:11:52;10.20;99.90
59660;DHT22;45534;52.690;6.268;2024-01-30T13:14:18;10.20;99.90
59660;DHT22;45534;52.690;6.268;2024-01-30T13:16:44;10.10;99.90
59660;DHT22;45534;52.690;6.268;2024-01-30T13:19:10;10.10;99.90
59660;DHT22;45534;52.690;6.268;2024-01-30T13:21:36;10.00;99.90
59660;DHT22;45534;52.690;6.268;2024-01-30T13:24:02;10.00;99.90
59660;DHT22;45534;52.690;6.268;2024-01-30T13:26:27;9.90;99.90
59660;DHT22;45534;52.690;6.268;2024-01-30T13:28:54;9.90;99.90
59660;DHT22;45534;52.690;6.268;2024-01-30T13:31:19;9.90;99.90
59660;DHT22;45534;52.690;6.268;2024-01-30T13:33:45;9.90;99.90
59660;DHT22;45534;52.690;6.268;2024-01-30T13:36:11;9.90;99.90
59660;DHT22;45534;52.690;6.268;2024-01-30T13:38:37;9.90;99.90
59660;DHT22;45534;52.690;6.268;2024-01-30T13:41:04;10.00;99.90
59660;DHT22;45534;52.690;6.268;2024-01-30T13:43:30;10.00;99.90
59660;DHT22;45534;52.690;6.268;2024-01-30T13:45:56;10.00;99.90
59660;DHT22;45534;52.690;6.268;2024-01-30T13:48:21;10.00;99.90
59660;DHT22;45534;52.690;6.268;2024-01-30T13:50:47;9.90;99.90
59660;DHT22;45534;52.690;6.268;2024-01-30T13:53:13;10.00;99.90
59660;DHT22;45534;52.690;6.268;2024-01-30T13:55:39;9.90;99.90
59660;DHT22;45534;52.690;6.268;2024-01-30T13:58:05;9.90;99.90
59660;DHT22;45534;52.690;6.268;2024-01-30T14:00:32;9.90;99.90
59660;DHT22;45534;52.690;6.268;2024-01-30T14:02:57;9.90;99.90
59660;DHT22;45534;52.690;6.268;2024-01-30T14:05:24;9.80;99.90
59660;DHT22;45534;52.690;6.268;2024-01-30T14:07:53;9.80;99.90
59660;DHT22;45534;52.690;6.268;2024-01-30T14:10:19;9.80;99.90
59660;DHT22;45534;52.690;6.268;2024-01-30T14:12:45;9.80;99.90
59660;DHT22;45534;52.690;6.268;2024-01-30T14:15:11;9.70;99.90
59660;DHT22;45534;52.690;6.268;2024-01-30T14:17:38;9.70;99.90
59660;DHT22;45534;52.690;6.268;2024-01-30T14:20:04;9.70;99.90
59660;DHT22;45534;52.690;6.268;2024-01-30T14:22:31;9.60;99.90
59660;DHT22;45534;52.690;6.268;2024-01-30T14:24:57;9.60;99.90
59660;DHT22;45534;52.690;6.268;2024-01-30T14:27:22;9.60;99.90
59660;DHT22;45534;52.690;6.268;2024-01-30T14:29:48;9.50;99.90
59660;DHT22;45534;52.690;6.268;2024-01-30T14:32:14;9.50;99.90
59660;DHT22;45534;52.690;6.268;2024-01-30T14:34:39;9.50;99.90
59660;DHT22;45534;52.690;6.268;2024-01-30T14:37:05;9.40;99.90
59660;DHT22;45534;52.690;6.268;2024-01-30T14:39:31;9.40;99.90
59660;DHT22;45534;52.690;6.268;2024-01-30T14:41:58;9.40;99.90
59660;DHT22;45534;52.690;6.268;2024-01-30T14:44:24;9.30;99.90
59660;DHT22;45534;52.690;6.268;2024-01-30T14:46:49;9.30;99.90
59660;DHT22;45534;52.690;6.268;2024-01-30T14:49:15;9.20;99.90
59660;DHT22;45534;52.690;6.268;2024-01-30T14:51:41;9.10;99.90
59660;DHT22;45534;52.690;6.268;2024-01-30T14:54:07;9.10;99.90
59660;DHT22;45534;52.690;6.268;2024-01-30T14:56:33;9.00;99.90
59660;DHT22;45534;52.690;6.268;2024-01-30T14:58:59;9.00;99.90
59660;DHT22;45534;52.690;6.268;2024-01-30T15:01:25;8.90;99.90
59660;DHT22;45534;52.690;6.268;2024-01-30T15:03:51;8.90;99.90
59660;DHT22;45534;52.690;6.268;2024-01-30T15:06:17;8.80;99.90
59660;DHT22;45534;52.690;6.268;2024-01-30T15:08:44;8.80;99.90
59660;DHT22;45534;52.690;6.268;2024-01-30T15:11:10;8.70;99.90
59660;DHT22;45534;52.690;6.268;2024-01-30T15:13:36;8.70;99.90
59660;DHT22;45534;52.690;6.268;2024-01-30T15:16:02;8.60;99.90
59660;DHT22;45534;52.690;6.268;2024-01-30T15:18:30;8.60;99.90
59660;DHT22;45534;52.690;6.268;2024-01-30T15:20:56;8.60;99.90
59660;DHT22;45534;52.690;6.268;2024-01-30T15:23:22;8.60;99.90
59660;DHT22;45534;52.690;6.268;2024-01-30T15:25:48;8.50;99.90
59660;DHT22;45534;52.690;6.268;2024-01-30T15:28:14;8.50;99.90
59660;DHT22;45534;52.690;6.268;2024-01-30T15:30:40;8.50;99.90
59660;DHT22;45534;52.690;6.268;2024-01-30T15:33:09;8.50;99.90
59660;DHT22;45534;52.690;6.268;2024-01-30T15:35:35;8.40;99.90
59660;DHT22;45534;52.690;6.268;2024-01-30T15:38:01;8.40;99.90
59660;DHT22;45534;52.690;6.268;2024-01-30T15:40:27;8.40;99.90